sensor_id;sensor_type;location;lat;lon;timestamp;P1;durP1;ratioP1;P2;durP2;ratioP2
2388;SDS011;1205;47.984;7.668;2024-01-06T00:02:22;1.37;;;1.00;;
2388;SDS011;1205;47.984;7.668;2024-01-06T00:04:48;1.10;;;1.03;;
2388;SDS011;1205;47.984;7.668;2024-01-06T00:07:13;1.10;;;1.10;;
2388;SDS011;1205;47.984;7.668;2024-01-06T00:09:39;3.70;;;1.20;;
2388;SDS011;1205;47.984;7.668;2024-01-06T00:12:05;1.23;;;1.10;;
2388;SDS011;1205;47.984;7.668;2024-01-06T00:14:31;6.27;;;1.50;;
2388;SDS011;1205;47.984;7.668;2024-01-06T00:16:56;10.30;;;2.40;;
2388;SDS011;1205;47.984;7.668;2024-01-06T00:19:22;8.77;;;2.23;;
2388;SDS011;1205;47.984;7.668;2024-01-06T00:21:47;10.13;;;4.70;;
2388;SDS011;1205;47.984;7.668;2024-01-06T00:24:13;7.97;;;3.67;;
2388;SDS011;1205;47.984;7.668;2024-01-06T00:26:38;5.93;;;2.83;;
2388;SDS011;1205;47.984;7.668;2024-01-06T00:29:04;5.83;;;3.20;;
2388;SDS011;1205;47.984;7.668;2024-01-06T00:31:29;6.00;;;2.67;;
2388;SDS011;1205;47.984;7.668;2024-01-06T00:33:55;2.30;;;1.87;;
2388;SDS011;1205;47.984;7.668;2024-01-06T00:36:21;4.63;;;2.70;;
2388;SDS011;1205;47.984;7.668;2024-01-06T00:38:46;2.17;;;1.20;;
2388;SDS011;1205;47.984;7.668;2024-01-06T00:41:12;1.80;;;1.00;;
2388;SDS011;1205;47.984;7.668;2024-01-06T00:43:38;5.73;;;1.77;;
2388;SDS011;1205;47.984;7.668;2024-01-06T00:46:04;4.40;;;0.90;;
2388;SDS011;1205;47.984;7.668;2024-01-06T00:48:29;2.43;;;1.00;;
2388;SDS011;1205;47.984;7.668;2024-01-06T00:50:55;4.67;;;0.90;;
2388;SDS011;1205;47.984;7.668;2024-01-06T00:53:21;2.93;;;1.00;;
2388;SDS011;1205;47.984;7.668;2024-01-06T00:55:47;9.73;;;3.00;;
2388;SDS011;1205;47.984;7.668;2024-01-06T00:58:12;8.93;;;3.50;;
2388;SDS011;1205;47.984;7.668;2024-01-06T01:00:38;6.27;;;2.30;;
2388;SDS011;1205;47.984;7.668;2024-01-06T01:03:04;6.70;;;2.53;;
2388;SDS011;1205;47.984;7.668;2024-01-06T01:05:29;3.90;;;2.17;;
2388;SDS011;1205;47.984;7.668;2024-01-06T01:07:55;4.23;;;1.47;;
2388;SDS011;1205;47.984;7.668;2024-01-06T01:10:20;2.67;;;1.50;;
2388;SDS011;1205;47.984;7.668;2024-01-06T01:12:46;1.80;;;1.50;;
2388;SDS011;1205;47.984;7.668;2024-01-06T01:15:11;3.13;;;1.63;;
2388;SDS011;1205;47.984;7.668;2024-01-06T01:17:37;4.10;;;1.13;;
2388;SDS011;1205;47.984;7.668;2024-01-06T01:20:03;8.97;;;2.03;;
2388;SDS011;1205;47.984;7.668;2024-01-06T01:22:29;6.03;;;2.20;;
2388;SDS011;1205;47.984;7.668;2024-01-06T01:24:55;8.47;;;2.60;;
2388;SDS011;1205;47.984;7.668;2024-01-06T01:27:21;12.53;;;2.67;;
2388;SDS011;1205;47.984;7.668;2024-01-06T01:29:46;3.90;;;2.40;;
2388;SDS011;1205;47.984;7.668;2024-01-06T01:32:13;6.33;;;2.70;;
2388;SDS011;1205;47.984;7.668;2024-01-06T01:34:38;14.70;;;3.23;;
2388;SDS011;1205;47.984;7.668;2024-01-06T01:37:04;9.50;;;3.40;;
2388;SDS011;1205;47.984;7.668;2024-01-06T01:39:29;6.80;;;2.67;;
2388;SDS011;1205;47.984;7.668;2024-01-06T01:41:55;15.03;;;3.40;;
2388;SDS011;1205;47.984;7.668;2024-01-06T01:44:21;9.47;;;2.67;;
2388;SDS011;1205;47.984;7.668;2024-01-06T01:46:46;6.13;;;1.93;;
2388;SDS011;1205;47.984;7.668;2024-01-06T01:49:12;1.57;;;1.40;;
2388;SDS011;1205;47.984;7.668;2024-01-06T01:51:38;5.50;;;1.30;;
2388;SDS011;1205;47.984;7.668;2024-01-06T01:54:05;2.73;;;1.37;;
2388;SDS011;1205;47.984;7.668;2024-01-06T01:56:32;2.60;;;1.73;;
2388;SDS011;1205;47.984;7.668;2024-01-06T01:59:11;3.80;;;1.80;;
2388;SDS011;1205;47.984;7.668;2024-01-06T02:01:38;6.80;;;2.77;;
2388;SDS011;1205;47.984;7.668;2024-01-06T02:04:05;7.90;;;2.47;;
2388;SDS011;1205;47.984;7.668;2024-01-06T02:06:30;5.77;;;2.30;;
2388;SDS011;1205;47.984;7.668;2024-01-06T02:08:56;5.90;;;2.37;;
2388;SDS011;1205;47.984;7.668;2024-01-06T02:11:22;11.07;;;1.93;;
2388;SDS011;1205;47.984;7.668;2024-01-06T02:13:48;6.73;;;2.10;;
2388;SDS011;1205;47.984;7.668;2024-01-06T02:16:13;9.00;;;2.40;;
2388;SDS011;1205;47.984;7.668;2024-01-06T02:18:39;7.97;;;3.17;;
2388;SDS011;1205;47.984;7.668;2024-01-06T02:21:04;9.20;;;3.57;;
2388;SDS011;1205;47.984;7.668;2024-01-06T02:23:33;10.63;;;3.87;;
2388;SDS011;1205;47.984;7.668;2024-01-06T02:26:00;12.70;;;3.90;;
2388;SDS011;1205;47.984;7.668;2024-01-06T02:28:25;9.73;;;4.57;;
2388;SDS011;1205;47.984;7.668;2024-01-06T02:30:51;7.53;;;3.20;;
2388;SDS011;1205;47.984;7.668;2024-01-06T02:33:17;11.17;;;4.17;;
2388;SDS011;1205;47.984;7.668;2024-01-06T02:35:44;9.20;;;3.77;;
2388;SDS011;1205;47.984;7.668;2024-01-06T02:38:12;11.23;;;3.53;;
2388;SDS011;1205;47.984;7.668;2024-01-06T02:40:38;9.37;;;3.40;;
2388;SDS011;1205;47.984;7.668;2024-01-06T02:43:04;8.33;;;2.93;;
2388;SDS011;1205;47.984;7.668;2024-01-06T02:45:29;10.33;;;3.00;;
2388;SDS011;1205;47.984;7.668;2024-01-06T02:47:55;4.43;;;2.33;;
2388;SDS011;1205;47.984;7.668;2024-01-06T02:50:20;10.17;;;2.40;;
2388;SDS011;1205;47.984;7.668;2024-01-06T02:52:46;6.00;;;1.87;;
2388;SDS011;1205;47.984;7.668;2024-01-06T02:55:12;8.97;;;2.53;;
2388;SDS011;1205;47.984;7.668;2024-01-06T02:57:37;5.97;;;1.33;;
2388;SDS011;1205;47.984;7.668;2024-01-06T03:00:03;5.87;;;1.70;;
2388;SDS011;1205;47.984;7.668;2024-01-06T03:02:29;3.93;;;1.40;;
2388;SDS011;1205;47.984;7.668;2024-01-06T03:04:55;3.03;;;1.40;;
2388;SDS011;1205;47.984;7.668;2024-01-06T03:07:21;5.13;;;1.47;;
2388;SDS011;1205;47.984;7.668;2024-01-06T03:09:47;3.50;;;1.27;;
2388;SDS011;1205;47.984;7.668;2024-01-06T03:12:12;1.60;;;1.33;;
2388;SDS011;1205;47.984;7.668;2024-01-06T03:14:38;4.07;;;1.70;;
2388;SDS011;1205;47.984;7.668;2024-01-06T03:17:04;7.50;;;1.57;;
2388;SDS011;1205;47.984;7.668;2024-01-06T03:19:32;1.93;;;1.23;;
2388;SDS011;1205;47.984;7.668;2024-01-06T03:21:58;5.50;;;1.80;;
2388;SDS011;1205;47.984;7.668;2024-01-06T03:24:25;3.23;;;1.80;;
2388;SDS011;1205;47.984;7.668;2024-01-06T03:26:51;2.03;;;1.40;;
2388;SDS011;1205;47.984;7.668;2024-01-06T03:29:17;2.93;;;1.40;;
2388;SDS011;1205;47.984;7.668;2024-01-06T03:31:43;2.03;;;1.60;;
2388;SDS011;1205;47.984;7.668;2024-01-06T03:34:09;8.60;;;1.73;;
2388;SDS011;1205;47.984;7.668;2024-01-06T03:36:38;5.30;;;2.07;;
2388;SDS011;1205;47.984;7.668;2024-01-06T03:39:04;4.10;;;1.37;;
2388;SDS011;1205;47.984;7.668;2024-01-06T03:41:29;2.70;;;1.67;;
2388;SDS011;1205;47.984;7.668;2024-01-06T03:43:55;5.83;;;2.10;;
2388;SDS011;1205;47.984;7.668;2024-01-06T03:46:21;1.60;;;1.50;;
2388;SDS011;1205;47.984;7.668;2024-01-06T03:48:47;5.03;;;1.90;;
2388;SDS011;1205;47.984;7.668;2024-01-06T03:51:12;5.70;;;2.10;;
2388;SDS011;1205;47.984;7.668;2024-01-06T03:53:38;8.03;;;2.53;;
2388;SDS011;1205;47.984;7.668;2024-01-06T03:56:05;4.43;;;1.77;;
2388;SDS011;1205;47.984;7.668;2024-01-06T03:58:31;8.67;;;2.03;;
2388;SDS011;1205;47.984;7.668;2024-01-06T04:00:56;1.40;;;1.23;;
2388;SDS011;1205;47.984;7.668;2024-01-06T04:03:22;4.33;;;1.47;;
2388;SDS011;1205;47.984;7.668;2024-01-06T04:05:48;4.83;;;1.40;;
2388;SDS011;1205;47.984;7.668;2024-01-06T04:08:14;2.40;;;1.20;;
2388;SDS011;1205;47.984;7.668;2024-01-06T04:10:39;4.10;;;1.87;;
2388;SDS011;1205;47.984;7.668;2024-01-06T04:13:06;3.37;;;1.90;;
2388;SDS011;1205;47.984;7.668;2024-01-06T04:15:32;4.27;;;1.60;;
2388;SDS011;1205;47.984;7.668;2024-01-06T04:18:00;6.30;;;1.67;;
2388;SDS011;1205;47.984;7.668;2024-01-06T04:20:28;5.83;;;1.63;;
2388;SDS011;1205;47.984;7.668;2024-01-06T04:22:53;5.57;;;2.13;;
2388;SDS011;1205;47.984;7.668;2024-01-06T04:25:19;5.43;;;1.50;;
2388;SDS011;1205;47.984;7.668;2024-01-06T04:27:44;1.57;;;1.27;;
2388;SDS011;1205;47.984;7.668;2024-01-06T04:30:12;4.50;;;1.33;;
2388;SDS011;1205;47.984;7.668;2024-01-06T04:32:38;3.90;;;1.50;;
2388;SDS011;1205;47.984;7.668;2024-01-06T04:35:04;3.43;;;1.40;;
2388;SDS011;1205;47.984;7.668;2024-01-06T04:37:30;4.03;;;1.80;;
2388;SDS011;1205;47.984;7.668;2024-01-06T04:39:55;2.30;;;1.40;;
2388;SDS011;1205;47.984;7.668;2024-01-06T04:42:22;4.10;;;1.33;;
2388;SDS011;1205;47.984;7.668;2024-01-06T04:44:47;6.53;;;2.07;;
2388;SDS011;1205;47.984;7.668;2024-01-06T04:47:14;8.13;;;1.80;;
2388;SDS011;1205;47.984;7.668;2024-01-06T04:49:39;5.80;;;2.13;;
2388;SDS011;1205;47.984;7.668;2024-01-06T04:52:05;5.97;;;2.00;;
2388;SDS011;1205;47.984;7.668;2024-01-06T04:54:30;4.17;;;2.37;;
2388;SDS011;1205;47.984;7.668;2024-01-06T04:56:57;7.60;;;1.60;;
2388;SDS011;1205;47.984;7.668;2024-01-06T04:59:23;2.50;;;1.90;;
2388;SDS011;1205;47.984;7.668;2024-01-06T05:01:49;6.47;;;2.27;;
2388;SDS011;1205;47.984;7.668;2024-01-06T05:04:16;5.50;;;2.17;;
2388;SDS011;1205;47.984;7.668;2024-01-06T05:06:42;10.17;;;2.30;;
2388;SDS011;1205;47.984;7.668;2024-01-06T05:09:08;5.67;;;1.83;;
2388;SDS011;1205;47.984;7.668;2024-01-06T05:11:33;1.90;;;1.80;;
2388;SDS011;1205;47.984;7.668;2024-01-06T05:13:59;4.07;;;1.80;;
2388;SDS011;1205;47.984;7.668;2024-01-06T05:16:24;7.93;;;2.57;;
2388;SDS011;1205;47.984;7.668;2024-01-06T05:18:50;6.13;;;1.97;;
2388;SDS011;1205;47.984;7.668;2024-01-06T05:21:16;4.37;;;1.77;;
2388;SDS011;1205;47.984;7.668;2024-01-06T05:23:41;3.37;;;1.50;;
2388;SDS011;1205;47.984;7.668;2024-01-06T05:26:07;2.23;;;1.63;;
2388;SDS011;1205;47.984;7.668;2024-01-06T05:28:33;11.50;;;1.57;;
2388;SDS011;1205;47.984;7.668;2024-01-06T05:30:58;2.47;;;1.20;;
2388;SDS011;1205;47.984;7.668;2024-01-06T05:33:24;3.03;;;1.43;;
2388;SDS011;1205;47.984;7.668;2024-01-06T05:35:49;1.90;;;1.33;;
2388;SDS011;1205;47.984;7.668;2024-01-06T05:38:15;3.73;;;1.20;;
2388;SDS011;1205;47.984;7.668;2024-01-06T05:40:42;7.43;;;1.60;;
2388;SDS011;1205;47.984;7.668;2024-01-06T05:43:07;2.90;;;1.10;;
2388;SDS011;1205;47.984;7.668;2024-01-06T05:45:33;8.00;;;1.83;;
2388;SDS011;1205;47.984;7.668;2024-01-06T05:47:58;1.87;;;1.07;;
2388;SDS011;1205;47.984;7.668;2024-01-06T05:50:24;8.33;;;1.30;;
2388;SDS011;1205;47.984;7.668;2024-01-06T05:52:50;2.53;;;1.40;;
2388;SDS011;1205;47.984;7.668;2024-01-06T05:55:17;4.40;;;1.10;;
2388;SDS011;1205;47.984;7.668;2024-01-06T05:57:42;1.57;;;1.07;;
2388;SDS011;1205;47.984;7.668;2024-01-06T06:00:08;7.87;;;1.43;;
2388;SDS011;1205;47.984;7.668;2024-01-06T06:02:34;4.40;;;1.23;;
2388;SDS011;1205;47.984;7.668;2024-01-06T06:04:59;7.30;;;1.27;;
2388;SDS011;1205;47.984;7.668;2024-01-06T06:07:25;4.50;;;1.60;;
2388;SDS011;1205;47.984;7.668;2024-01-06T06:09:51;4.30;;;1.40;;
2388;SDS011;1205;47.984;7.668;2024-01-06T06:12:18;7.07;;;1.43;;
2388;SDS011;1205;47.984;7.668;2024-01-06T06:14:43;3.57;;;1.40;;
2388;SDS011;1205;47.984;7.668;2024-01-06T06:17:09;4.77;;;1.40;;
2388;SDS011;1205;47.984;7.668;2024-01-06T06:19:34;4.77;;;1.83;;
2388;SDS011;1205;47.984;7.668;2024-01-06T06:22:00;2.23;;;1.20;;
2388;SDS011;1205;47.984;7.668;2024-01-06T06:24:25;1.70;;;1.20;;
2388;SDS011;1205;47.984;7.668;2024-01-06T06:26:51;2.43;;;1.27;;
2388;SDS011;1205;47.984;7.668;2024-01-06T06:29:17;6.90;;;3.43;;
2388;SDS011;1205;47.984;7.668;2024-01-06T06:31:42;2.80;;;2.30;;
2388;SDS011;1205;47.984;7.668;2024-01-06T06:34:09;7.97;;;2.03;;
2388;SDS011;1205;47.984;7.668;2024-01-06T06:36:35;2.17;;;1.97;;
2388;SDS011;1205;47.984;7.668;2024-01-06T06:39:01;4.17;;;1.97;;
2388;SDS011;1205;47.984;7.668;2024-01-06T06:41:29;2.87;;;1.20;;
2388;SDS011;1205;47.984;7.668;2024-01-06T06:43:54;4.07;;;2.57;;
2388;SDS011;1205;47.984;7.668;2024-01-06T06:46:21;9.50;;;4.23;;
2388;SDS011;1205;47.984;7.668;2024-01-06T06:48:46;9.20;;;4.73;;
2388;SDS011;1205;47.984;7.668;2024-01-06T06:51:12;4.63;;;3.27;;
2388;SDS011;1205;47.984;7.668;2024-01-06T06:53:37;4.40;;;1.80;;
2388;SDS011;1205;47.984;7.668;2024-01-06T06:56:03;3.10;;;1.60;;
2388;SDS011;1205;47.984;7.668;2024-01-06T06:58:29;2.77;;;1.73;;
2388;SDS011;1205;47.984;7.668;2024-01-06T07:00:54;3.57;;;2.47;;
2388;SDS011;1205;47.984;7.668;2024-01-06T07:03:20;3.50;;;2.20;;
2388;SDS011;1205;47.984;7.668;2024-01-06T07:05:46;4.77;;;2.87;;
2388;SDS011;1205;47.984;7.668;2024-01-06T07:08:11;4.17;;;3.30;;
2388;SDS011;1205;47.984;7.668;2024-01-06T07:10:39;5.07;;;3.57;;
2388;SDS011;1205;47.984;7.668;2024-01-06T07:13:05;6.90;;;3.40;;
2388;SDS011;1205;47.984;7.668;2024-01-06T07:15:31;6.00;;;2.57;;
2388;SDS011;1205;47.984;7.668;2024-01-06T07:17:56;6.00;;;2.70;;
2388;SDS011;1205;47.984;7.668;2024-01-06T07:20:22;5.50;;;3.53;;
2388;SDS011;1205;47.984;7.668;2024-01-06T07:22:47;6.23;;;3.10;;
2388;SDS011;1205;47.984;7.668;2024-01-06T07:25:13;3.77;;;2.50;;
2388;SDS011;1205;47.984;7.668;2024-01-06T07:27:38;8.53;;;3.37;;
2388;SDS011;1205;47.984;7.668;2024-01-06T07:30:04;2.53;;;2.13;;
2388;SDS011;1205;47.984;7.668;2024-01-06T07:32:33;4.50;;;2.70;;
2388;SDS011;1205;47.984;7.668;2024-01-06T07:34:58;7.00;;;3.00;;
2388;SDS011;1205;47.984;7.668;2024-01-06T07:37:24;9.33;;;3.30;;
2388;SDS011;1205;47.984;7.668;2024-01-06T07:39:50;8.77;;;3.07;;
2388;SDS011;1205;47.984;7.668;2024-01-06T07:42:16;3.37;;;2.70;;
2388;SDS011;1205;47.984;7.668;2024-01-06T07:44:42;5.77;;;2.80;;
2388;SDS011;1205;47.984;7.668;2024-01-06T07:47:07;5.37;;;3.33;;
2388;SDS011;1205;47.984;7.668;2024-01-06T07:49:33;8.00;;;3.80;;
2388;SDS011;1205;47.984;7.668;2024-01-06T07:51:58;4.13;;;3.10;;
2388;SDS011;1205;47.984;7.668;2024-01-06T07:54:24;5.70;;;3.27;;
2388;SDS011;1205;47.984;7.668;2024-01-06T07:56:50;5.13;;;3.40;;
2388;SDS011;1205;47.984;7.668;2024-01-06T07:59:16;7.03;;;2.53;;
2388;SDS011;1205;47.984;7.668;2024-01-06T08:01:41;7.73;;;2.57;;
2388;SDS011;1205;47.984;7.668;2024-01-06T08:04:08;6.57;;;2.90;;
2388;SDS011;1205;47.984;7.668;2024-01-06T08:06:34;7.37;;;2.80;;
2388;SDS011;1205;47.984;7.668;2024-01-06T08:08:59;6.03;;;2.70;;
2388;SDS011;1205;47.984;7.668;2024-01-06T08:11:25;7.17;;;3.60;;
2388;SDS011;1205;47.984;7.668;2024-01-06T08:13:50;10.10;;;3.87;;
2388;SDS011;1205;47.984;7.668;2024-01-06T08:16:16;10.03;;;4.70;;
2388;SDS011;1205;47.984;7.668;2024-01-06T08:18:42;8.73;;;3.33;;
2388;SDS011;1205;47.984;7.668;2024-01-06T08:21:07;4.57;;;3.40;;
2388;SDS011;1205;47.984;7.668;2024-01-06T08:23:33;3.83;;;2.40;;
2388;SDS011;1205;47.984;7.668;2024-01-06T08:25:58;4.33;;;2.70;;
2388;SDS011;1205;47.984;7.668;2024-01-06T08:28:24;3.90;;;3.23;;
2388;SDS011;1205;47.984;7.668;2024-01-06T08:30:50;5.03;;;3.43;;
2388;SDS011;1205;47.984;7.668;2024-01-06T08:33:15;6.17;;;3.77;;
2388;SDS011;1205;47.984;7.668;2024-01-06T08:35:42;3.27;;;2.97;;
2388;SDS011;1205;47.984;7.668;2024-01-06T08:38:08;4.50;;;2.87;;
2388;SDS011;1205;47.984;7.668;2024-01-06T08:40:35;2.67;;;2.47;;
2388;SDS011;1205;47.984;7.668;2024-01-06T08:43:01;4.67;;;3.23;;
2388;SDS011;1205;47.984;7.668;2024-01-06T08:45:27;6.70;;;2.87;;
2388;SDS011;1205;47.984;7.668;2024-01-06T08:47:52;3.60;;;2.80;;
2388;SDS011;1205;47.984;7.668;2024-01-06T08:50:18;4.57;;;2.90;;
2388;SDS011;1205;47.984;7.668;2024-01-06T08:52:43;4.67;;;3.23;;
2388;SDS011;1205;47.984;7.668;2024-01-06T08:55:09;5.70;;;2.43;;
2388;SDS011;1205;47.984;7.668;2024-01-06T08:57:34;3.53;;;3.07;;
2388;SDS011;1205;47.984;7.668;2024-01-06T09:00:00;5.10;;;3.43;;
2388;SDS011;1205;47.984;7.668;2024-01-06T09:02:26;10.10;;;3.30;;
2388;SDS011;1205;47.984;7.668;2024-01-06T09:04:51;7.63;;;3.93;;
2388;SDS011;1205;47.984;7.668;2024-01-06T09:07:17;6.10;;;4.23;;
2388;SDS011;1205;47.984;7.668;2024-01-06T09:09:43;9.63;;;4.30;;
2388;SDS011;1205;47.984;7.668;2024-01-06T09:12:09;8.50;;;4.67;;
2388;SDS011;1205;47.984;7.668;2024-01-06T09:14:34;7.70;;;6.00;;
2388;SDS011;1205;47.984;7.668;2024-01-06T09:17:00;14.47;;;7.37;;
2388;SDS011;1205;47.984;7.668;2024-01-06T09:19:25;12.10;;;7.50;;
2388;SDS011;1205;47.984;7.668;2024-01-06T09:21:53;12.13;;;5.73;;
2388;SDS011;1205;47.984;7.668;2024-01-06T09:24:19;6.33;;;4.90;;
2388;SDS011;1205;47.984;7.668;2024-01-06T09:26:45;15.57;;;6.97;;
2388;SDS011;1205;47.984;7.668;2024-01-06T09:29:11;9.83;;;6.00;;
2388;SDS011;1205;47.984;7.668;2024-01-06T09:31:36;9.70;;;5.90;;
2388;SDS011;1205;47.984;7.668;2024-01-06T09:34:02;7.90;;;5.23;;
2388;SDS011;1205;47.984;7.668;2024-01-06T09:36:29;8.50;;;5.43;;
2388;SDS011;1205;47.984;7.668;2024-01-06T09:38:57;7.30;;;4.73;;
2388;SDS011;1205;47.984;7.668;2024-01-06T09:41:23;11.57;;;5.00;;
2388;SDS011;1205;47.984;7.668;2024-01-06T09:43:49;10.77;;;5.47;;
2388;SDS011;1205;47.984;7.668;2024-01-06T09:46:17;6.80;;;5.27;;
2388;SDS011;1205;47.984;7.668;2024-01-06T09:48:50;23.10;;;10.97;;
2388;SDS011;1205;47.984;7.668;2024-01-06T09:51:20;6.87;;;4.77;;
2388;SDS011;1205;47.984;7.668;2024-01-06T09:56:21;6.53;;;4.73;;
2388;SDS011;1205;47.984;7.668;2024-01-06T09:58:50;8.67;;;7.50;;
2388;SDS011;1205;47.984;7.668;2024-01-06T10:01:17;7.07;;;4.63;;
2388;SDS011;1205;47.984;7.668;2024-01-06T10:03:43;7.40;;;4.57;;
2388;SDS011;1205;47.984;7.668;2024-01-06T10:06:10;8.03;;;4.00;;
2388;SDS011;1205;47.984;7.668;2024-01-06T10:08:36;13.73;;;10.93;;
2388;SDS011;1205;47.984;7.668;2024-01-06T10:11:05;12.83;;;7.87;;
2388;SDS011;1205;47.984;7.668;2024-01-06T10:13:35;9.40;;;4.57;;
2388;SDS011;1205;47.984;7.668;2024-01-06T10:16:03;5.70;;;3.73;;
2388;SDS011;1205;47.984;7.668;2024-01-06T10:18:29;7.53;;;4.13;;
2388;SDS011;1205;47.984;7.668;2024-01-06T10:20:56;8.03;;;4.23;;
2388;SDS011;1205;47.984;7.668;2024-01-06T10:23:22;10.00;;;4.70;;
2388;SDS011;1205;47.984;7.668;2024-01-06T10:25:52;8.73;;;5.07;;
2388;SDS011;1205;47.984;7.668;2024-01-06T10:28:18;15.53;;;8.60;;
2388;SDS011;1205;47.984;7.668;2024-01-06T10:30:46;10.57;;;4.50;;
2388;SDS011;1205;47.984;7.668;2024-01-06T10:33:12;8.00;;;4.90;;
2388;SDS011;1205;47.984;7.668;2024-01-06T10:35:39;9.53;;;4.27;;
2388;SDS011;1205;47.984;7.668;2024-01-06T10:38:04;5.47;;;4.97;;
2388;SDS011;1205;47.984;7.668;2024-01-06T10:40:31;12.60;;;6.40;;
2388;SDS011;1205;47.984;7.668;2024-01-06T10:42:57;12.27;;;5.77;;
2388;SDS011;1205;47.984;7.668;2024-01-06T10:45:23;5.83;;;4.70;;
2388;SDS011;1205;47.984;7.668;2024-01-06T10:47:48;8.00;;;4.60;;
2388;SDS011;1205;47.984;7.668;2024-01-06T10:50:16;5.63;;;4.30;;
2388;SDS011;1205;47.984;7.668;2024-01-06T10:52:42;6.97;;;5.17;;
2388;SDS011;1205;47.984;7.668;2024-01-06T10:55:09;9.13;;;4.60;;
2388;SDS011;1205;47.984;7.668;2024-01-06T10:57:34;7.97;;;4.57;;
2388;SDS011;1205;47.984;7.668;2024-01-06T11:00:03;10.33;;;5.93;;
2388;SDS011;1205;47.984;7.668;2024-01-06T11:02:31;6.63;;;4.27;;
2388;SDS011;1205;47.984;7.668;2024-01-06T11:04:57;13.50;;;8.83;;
2388;SDS011;1205;47.984;7.668;2024-01-06T11:07:23;10.50;;;6.00;;
2388;SDS011;1205;47.984;7.668;2024-01-06T11:12:16;6.60;;;3.60;;
2388;SDS011;1205;47.984;7.668;2024-01-06T11:14:42;6.97;;;3.57;;
2388;SDS011;1205;47.984;7.668;2024-01-06T11:17:10;9.10;;;4.07;;
2388;SDS011;1205;47.984;7.668;2024-01-06T11:22:17;7.30;;;3.50;;
2388;SDS011;1205;47.984;7.668;2024-01-06T11:24:49;10.70;;;4.30;;
2388;SDS011;1205;47.984;7.668;2024-01-06T11:27:19;6.00;;;3.60;;
2388;SDS011;1205;47.984;7.668;2024-01-06T11:29:47;6.73;;;3.47;;
2388;SDS011;1205;47.984;7.668;2024-01-06T11:32:16;3.63;;;3.07;;
2388;SDS011;1205;47.984;7.668;2024-01-06T11:34:52;5.00;;;3.67;;
2388;SDS011;1205;47.984;7.668;2024-01-06T11:37:20;4.80;;;3.13;;
2388;SDS011;1205;47.984;7.668;2024-01-06T11:40:01;7.40;;;3.43;;
2388;SDS011;1205;47.984;7.668;2024-01-06T11:42:33;5.47;;;2.80;;
2388;SDS011;1205;47.984;7.668;2024-01-06T11:45:03;4.60;;;3.07;;
2388;SDS011;1205;47.984;7.668;2024-01-06T11:47:31;7.03;;;3.17;;
2388;SDS011;1205;47.984;7.668;2024-01-06T11:49:57;3.33;;;2.77;;
2388;SDS011;1205;47.984;7.668;2024-01-06T11:52:25;7.70;;;2.67;;
2388;SDS011;1205;47.984;7.668;2024-01-06T11:54:52;2.30;;;2.17;;
2388;SDS011;1205;47.984;7.668;2024-01-06T11:57:20;6.23;;;2.20;;
2388;SDS011;1205;47.984;7.668;2024-01-06T11:59:46;2.60;;;2.30;;
2388;SDS011;1205;47.984;7.668;2024-01-06T12:02:12;7.33;;;2.90;;
2388;SDS011;1205;47.984;7.668;2024-01-06T12:04:39;3.90;;;2.80;;
2388;SDS011;1205;47.984;7.668;2024-01-06T12:07:08;3.30;;;2.73;;
2388;SDS011;1205;47.984;7.668;2024-01-06T12:09:34;2.50;;;2.30;;
2388;SDS011;1205;47.984;7.668;2024-01-06T12:12:01;6.43;;;2.80;;
2388;SDS011;1205;47.984;7.668;2024-01-06T12:14:27;3.93;;;2.30;;
2388;SDS011;1205;47.984;7.668;2024-01-06T12:16:54;2.83;;;2.50;;
2388;SDS011;1205;47.984;7.668;2024-01-06T12:19:22;3.80;;;2.33;;
2388;SDS011;1205;47.984;7.668;2024-01-06T12:21:48;5.90;;;2.40;;
2388;SDS011;1205;47.984;7.668;2024-01-06T12:24:17;1.80;;;1.70;;
2388;SDS011;1205;47.984;7.668;2024-01-06T12:26:46;4.37;;;1.93;;
2388;SDS011;1205;47.984;7.668;2024-01-06T12:29:12;6.00;;;1.90;;
2388;SDS011;1205;47.984;7.668;2024-01-06T12:31:39;4.57;;;1.60;;
2388;SDS011;1205;47.984;7.668;2024-01-06T12:34:05;3.23;;;2.93;;
2388;SDS011;1205;47.984;7.668;2024-01-06T12:36:32;3.80;;;1.97;;
2388;SDS011;1205;47.984;7.668;2024-01-06T12:39:06;2.83;;;2.33;;
2388;SDS011;1205;47.984;7.668;2024-01-06T12:41:38;1.43;;;1.30;;
2388;SDS011;1205;47.984;7.668;2024-01-06T12:44:04;1.37;;;1.37;;
2388;SDS011;1205;47.984;7.668;2024-01-06T12:46:30;1.80;;;1.57;;
2388;SDS011;1205;47.984;7.668;2024-01-06T12:48:55;1.47;;;1.37;;
2388;SDS011;1205;47.984;7.668;2024-01-06T12:51:21;1.90;;;1.53;;
2388;SDS011;1205;47.984;7.668;2024-01-06T12:53:46;2.07;;;1.30;;
2388;SDS011;1205;47.984;7.668;2024-01-06T12:56:12;2.93;;;1.57;;
2388;SDS011;1205;47.984;7.668;2024-01-06T12:58:39;2.87;;;1.40;;
2388;SDS011;1205;47.984;7.668;2024-01-06T13:01:05;3.70;;;1.77;;
2388;SDS011;1205;47.984;7.668;2024-01-06T13:03:32;1.40;;;1.30;;
2388;SDS011;1205;47.984;7.668;2024-01-06T13:05:58;2.10;;;1.20;;
2388;SDS011;1205;47.984;7.668;2024-01-06T13:08:25;1.13;;;1.13;;
2388;SDS011;1205;47.984;7.668;2024-01-06T13:10:50;1.80;;;1.70;;
2388;SDS011;1205;47.984;7.668;2024-01-06T13:13:16;1.93;;;1.27;;
2388;SDS011;1205;47.984;7.668;2024-01-06T13:15:42;1.50;;;1.40;;
2388;SDS011;1205;47.984;7.668;2024-01-06T13:18:07;2.00;;;1.90;;
2388;SDS011;1205;47.984;7.668;2024-01-06T13:20:33;1.63;;;1.53;;
2388;SDS011;1205;47.984;7.668;2024-01-06T13:22:58;1.80;;;1.70;;
2388;SDS011;1205;47.984;7.668;2024-01-06T13:25:24;1.67;;;1.57;;
2388;SDS011;1205;47.984;7.668;2024-01-06T13:27:49;1.50;;;1.40;;
2388;SDS011;1205;47.984;7.668;2024-01-06T13:30:16;1.70;;;1.60;;
2388;SDS011;1205;47.984;7.668;2024-01-06T13:32:42;3.70;;;1.53;;
2388;SDS011;1205;47.984;7.668;2024-01-06T13:35:08;1.33;;;1.23;;
2388;SDS011;1205;47.984;7.668;2024-01-06T13:37:36;1.30;;;1.30;;
2388;SDS011;1205;47.984;7.668;2024-01-06T13:40:02;2.43;;;2.27;;
2388;SDS011;1205;47.984;7.668;2024-01-06T13:42:28;2.03;;;1.93;;
2388;SDS011;1205;47.984;7.668;2024-01-06T13:44:54;1.50;;;1.40;;
2388;SDS011;1205;47.984;7.668;2024-01-06T13:47:19;0.97;;;0.97;;
2388;SDS011;1205;47.984;7.668;2024-01-06T13:49:45;0.90;;;0.90;;
2388;SDS011;1205;47.984;7.668;2024-01-06T13:52:10;0.90;;;0.90;;
2388;SDS011;1205;47.984;7.668;2024-01-06T13:54:36;1.43;;;0.77;;
2388;SDS011;1205;47.984;7.668;2024-01-06T13:57:02;0.57;;;0.57;;
2388;SDS011;1205;47.984;7.668;2024-01-06T13:59:27;0.70;;;0.63;;
2388;SDS011;1205;47.984;7.668;2024-01-06T14:01:53;1.80;;;1.50;;
2388;SDS011;1205;47.984;7.668;2024-01-06T14:04:19;0.60;;;0.60;;
2388;SDS011;1205;47.984;7.668;2024-01-06T14:06:45;0.60;;;0.60;;
2388;SDS011;1205;47.984;7.668;2024-01-06T14:09:12;1.00;;;1.00;;
2388;SDS011;1205;47.984;7.668;2024-01-06T14:11:38;1.07;;;0.97;;
2388;SDS011;1205;47.984;7.668;2024-01-06T14:14:04;0.70;;;0.70;;
2388;SDS011;1205;47.984;7.668;2024-01-06T14:16:30;0.60;;;0.60;;
2388;SDS011;1205;47.984;7.668;2024-01-06T14:18:56;0.50;;;0.50;;
2388;SDS011;1205;47.984;7.668;2024-01-06T14:21:21;1.00;;;1.00;;
2388;SDS011;1205;47.984;7.668;2024-01-06T14:23:47;1.20;;;1.10;;
2388;SDS011;1205;47.984;7.668;2024-01-06T14:26:14;1.00;;;1.00;;
2388;SDS011;1205;47.984;7.668;2024-01-06T14:28:45;0.77;;;0.77;;
2388;SDS011;1205;47.984;7.668;2024-01-06T14:31:11;0.90;;;0.90;;
2388;SDS011;1205;47.984;7.668;2024-01-06T14:33:36;0.80;;;0.80;;
2388;SDS011;1205;47.984;7.668;2024-01-06T14:36:02;0.70;;;0.70;;
2388;SDS011;1205;47.984;7.668;2024-01-06T14:38:28;0.70;;;0.70;;
2388;SDS011;1205;47.984;7.668;2024-01-06T14:40:54;0.70;;;0.70;;
2388;SDS011;1205;47.984;7.668;2024-01-06T14:43:19;1.70;;;0.50;;
2388;SDS011;1205;47.984;7.668;2024-01-06T14:45:45;0.70;;;0.70;;
2388;SDS011;1205;47.984;7.668;2024-01-06T14:48:11;0.70;;;0.70;;
2388;SDS011;1205;47.984;7.668;2024-01-06T14:50:37;0.97;;;0.90;;
2388;SDS011;1205;47.984;7.668;2024-01-06T14:53:03;0.70;;;0.70;;
2388;SDS011;1205;47.984;7.668;2024-01-06T14:55:28;2.40;;;0.60;;
2388;SDS011;1205;47.984;7.668;2024-01-06T14:57:54;0.60;;;0.60;;
2388;SDS011;1205;47.984;7.668;2024-01-06T15:00:19;1.13;;;1.10;;
2388;SDS011;1205;47.984;7.668;2024-01-06T15:02:45;1.53;;;1.00;;
2388;SDS011;1205;47.984;7.668;2024-01-06T15:05:11;1.00;;;1.00;;
2388;SDS011;1205;47.984;7.668;2024-01-06T15:07:37;1.50;;;1.50;;
2388;SDS011;1205;47.984;7.668;2024-01-06T15:10:02;1.10;;;1.10;;
2388;SDS011;1205;47.984;7.668;2024-01-06T15:12:29;1.30;;;1.20;;
2388;SDS011;1205;47.984;7.668;2024-01-06T15:14:54;1.20;;;1.20;;
2388;SDS011;1205;47.984;7.668;2024-01-06T15:17:20;1.70;;;1.60;;